Time;durP1;ratioP1;P1;durP2;ratioP2;P2;SDS_P1;SDS_P2;PMS_P1;PMS_P2;Temp;Humidity;BMP_temperature;BMP_pressure;BME280_temperature;BME280_humidity;BME280_pressure;Samples;Min_cycle;Max_cycle;Signal;HPM_P1;HPM_P2
2021/11/11 00:01:00;;;;;;;16.83;12.88;;;;;;;6.02;76.47;101304.37;4399055;32;33705;-82
2021/11/11 00:03:28;;;;;;;20.88;12.02;;;;;;;5.93;76.73;101310.12;4394056;32;33387;-81
2021/11/11 00:05:57;;;;;;;20.35;14.50;;;;;;;5.76;77.48;101309.22;4407357;32;33278;-82
2021/11/11 00:08:24;;;;;;;23.00;14.73;;;;;;;5.88;76.98;101301.56;4394801;32;34213;-82
2021/11/11 00:10:52;;;;;;;24.80;12.37;;;;;;;5.65;77.36;101304.50;4406980;32;34177;-82
2021/11/11 00:13:19;;;;;;;20.65;13.43;;;;;;;5.53;78.14;101302.47;4406743;32;32804;-82
2021/11/11 00:15:48;;;;;;;19.40;12.23;;;;;;;5.59;77.97;101302.16;4421055;32;33559;-81
2021/11/11 00:18:17;;;;;;;26.92;13.88;;;;;;;5.80;77.27;101287.91;4408475;32;34979;-81
2021/11/11 00:20:44;;;;;;;;;;;;;;;6.10;75.88;101286.34;4408493;32;34379;-81
2021/11/11 00:23:12;;;;;;;27.62;14.18;;;;;;;5.84;76.77;101289.47;4409139;32;33187;-82
2021/11/11 00:25:39;;;;;;;18.40;13.88;;;;;;;5.95;76.29;101283.66;4396208;32;34048;-81
2021/11/11 00:28:09;;;;;;;22.73;15.60;;;;;;;5.55;77.84;101289.19;4409187;32;34815;-82
2021/11/11 00:30:36;;;;;;;26.73;13.00;;;;;;;5.65;77.79;101288.66;4408152;32;35204;-82
2021/11/11 00:33:04;;;;;;;20.48;16.42;;;;;;;5.47;78.07;101284.31;4409120;32;32599;-82
2021/11/11 00:35:33;;;;;;;18.33;12.70;;;;;;;5.56;78.32;101282.97;4393816;32;33731;-81
2021/11/11 00:38:01;;;;;;;17.10;14.70;;;;;;;5.54;77.74;101288.34;4393950;32;35810;-82
2021/11/11 00:40:29;;;;;;;;;;;;;;;5.67;77.46;101288.59;4405204;32;33382;-82
2021/11/11 00:43:00;;;;;;;;;;;;;;;5.68;77.10;101287.66;4409286;32;33442;-82
2021/11/11 00:45:28;;;;;;;18.83;11.38;;;;;;;5.42;77.32;101285.47;4419312;32;34194;-82
2021/11/11 00:47:56;;;;;;;17.25;11.25;;;;;;;5.40;77.87;101278.53;4421466;32;34715;-82
2021/11/11 00:50:26;;;;;;;18.00;14.40;;;;;;;5.13;78.79;101272.84;4408650;32;34307;-82
2021/11/11 00:52:54;;;;;;;18.25;11.85;;;;;;;5.12;79.17;101275.53;4408948;32;33405;-81
2021/11/11 00:55:22;;;;;;;;;;;;;;;4.99;79.58;101269.16;4423124;32;33328;-83
2021/11/11 00:57:51;;;;;;;19.23;10.07;;;;;;;5.06;79.69;101266.16;4409305;32;35942;-81
2021/11/11 01:00:20;;;;;;;23.17;14.13;;;;;;;5.07;78.89;101265.22;4408756;32;32730;-82
2021/11/11 01:02:50;;;;;;;14.00;10.48;;;;;;;5.05;79.17;101267.09;4408337;32;32370;-82
2021/11/11 01:05:18;;;;;;;18.02;11.70;;;;;;;5.08;79.30;101266.09;4408378;32;33498;-82
2021/11/11 01:07:46;;;;;;;;;;;;;;;4.96;79.84;101264.88;4423280;32;34519;-82
2021/11/11 01:10:16;;;;;;;20.02;11.55;;;;;;;5.11;79.50;101264.16;4410168;32;34927;-82
2021/11/11 01:12:45;;;;;;;22.02;12.27;;;;;;;5.31;78.70;101261.41;4408794;32;33527;-82
2021/11/11 01:15:16;;;;;;;15.73;12.65;;;;;;;5.26;78.69;101262.56;4395664;32;34536;-82
2021/11/11 01:17:44;;;;;;;15.80;10.70;;;;;;;5.27;78.44;101256.34;4396368;32;35094;-82
2021/11/11 01:20:13;;;;;;;17.67;13.00;;;;;;;5.09;78.80;101247.53;4408236;32;33403;-82
2021/11/11 01:22:42;;;;;;;17.12;10.95;;;;;;;4.76;80.34;101254.44;4396244;32;32690;-82
2021/11/11 01:25:15;;;;;;;15.25;10.15;;;;;;;4.97;79.37;101248.13;4396182;32;33303;-81
2021/11/11 01:27:42;;;;;;;19.90;12.73;;;;;;;5.08;79.10;101245.00;4408326;32;35243;-83
2021/11/11 01:30:12;;;;;;;22.50;12.48;;;;;;;5.26;78.27;101234.38;4395857;32;33314;-81
2021/11/11 01:32:40;;;;;;;18.52;12.45;;;;;;;5.28;78.00;101237.78;4422247;32;33175;-82
2021/11/11 01:35:08;;;;;;;;;;;;;;;5.46;77.32;101228.94;4396289;32;31938;-82
2021/11/11 01:37:41;;;;;;;18.15;11.95;;;;;;;5.25;78.46;101227.38;4421418;32;34372;-81
2021/11/11 01:40:09;;;;;;;23.80;13.60;;;;;;;5.27;77.81;101228.16;4413626;32;34356;-81
2021/11/11 01:42:52;;;;;;;32.15;13.90;;;;;;;5.49;77.35;101219.09;4408761;32;34748;-81
2021/11/11 01:45:30;;;;;;;14.85;12.18;;;;;;;5.30;78.09;101217.47;4420644;32;34738;-82
2021/11/11 01:48:00;;;;;;;20.88;14.18;;;;;;;5.47;77.13;101208.69;4408565;32;34975;-82
2021/11/11 01:50:28;;;;;;;17.45;10.38;;;;;;;5.60;76.52;101206.19;4433377;32;34994;-82
2021/11/11 01:52:56;;;;;;;;;;;;;;;5.46;76.74;101213.09;4407740;32;33731;-82
2021/11/11 01:55:24;;;;;;;18.27;9.98;;;;;;;5.43;77.02;101204.50;4408466;32;34033;-81
2021/11/11 01:57:52;;;;;;;;;;;;;;;5.49;76.26;101197.97;4396114;32;33698;-82
2021/11/11 02:00:27;;;;;;;13.20;10.68;;;;;;;5.07;77.74;101195.81;4414347;32;33257;-82
2021/11/11 02:02:57;;;;;;;11.52;9.15;;;;;;;5.05;77.63;101195.87;4408414;32;33529;-82
2021/11/11 02:05:29;;;;;;;16.60;10.13;;;;;;;5.13;77.47;101195.47;4383362;32;33508;-82
2021/11/11 02:07:57;;;;;;;15.63;11.05;;;;;;;5.12;77.60;101199.06;4407820;32;35804;-83
2021/11/11 02:10:28;;;;;;;16.25;11.48;;;;;;;5.29;77.03;101189.34;4401701;32;34444;-82
2021/11/11 02:12:56;;;;;;;16.10;10.73;;;;;;;5.19;76.89;101193.37;4422233;32;34215;-80
2021/11/11 02:15:24;;;;;;;12.88;10.48;;;;;;;4.96;77.61;101191.06;4408054;32;33384;-82
2021/11/11 02:17:52;;;;;;;18.62;10.48;;;;;;;4.81;78.38;101199.69;4407911;32;35278;-81
2021/11/11 02:20:28;;;;;;;16.55;11.68;;;;;;;4.80;78.57;101195.34;4394849;32;34267;-81
2021/11/11 02:22:59;;;;;;;15.00;11.53;;;;;;;4.86;78.35;101196.84;4384584;32;32714;-82
2021/11/11 02:25:29;;;;;;;15.52;10.02;;;;;;;4.75;78.64;101201.78;4395710;32;32486;-81
2021/11/11 02:28:01;;;;;;;24.90;11.25;;;;;;;5.00;77.79;101202.31;4408428;32;34474;-82
2021/11/11 02:30:31;;;;;;;19.67;10.50;;;;;;;5.31;76.30;101202.47;4407737;32;33499;-82
2021/11/11 02:33:00;;;;;;;22.85;13.68;;;;;;;5.27;76.36;101207.06;4407409;32;33643;-82
2021/11/11 02:35:28;;;;;;;16.20;9.40;;;;;;;5.34;76.26;101205.81;4421455;32;33880;-81
2021/11/11 02:38:00;;;;;;;15.13;11.07;;;;;;;4.96;76.86;101192.81;4407991;32;35211;-82
2021/11/11 02:40:28;;;;;;;16.75;9.60;;;;;;;4.92;77.42;101194.75;4391888;32;34228;-82
2021/11/11 02:42:56;;;;;;;18.42;10.50;;;;;;;4.99;77.53;101195.31;4406125;32;33063;-82
2021/11/11 02:45:25;;;;;;;;;;;;;;;4.91;77.67;101195.69;4420458;32;33043;-82
2021/11/11 02:47:54;;;;;;;12.35;8.55;;;;;;;4.79;78.21;101184.91;4420549;32;35400;-81
2021/11/11 02:50:23;;;;;;;17.62;9.63;;;;;;;4.70;78.17;101177.44;4408043;32;35107;-82
2021/11/11 02:52:52;;;;;;;12.43;7.53;;;;;;;4.78;78.38;101176.13;4408017;32;33042;-82
2021/11/11 02:55:22;;;;;;;16.65;10.70;;;;;;;4.61;79.12;101173.44;4408129;32;33826;-81
2021/11/11 02:57:51;;;;;;;14.15;9.18;;;;;;;4.85;78.17;101176.69;4421732;32;34781;-81
2021/11/11 03:00:23;;;;;;;14.70;9.80;;;;;;;5.03;77.59;101174.00;4405412;32;34157;-81
2021/11/11 03:02:52;;;;;;;13.05;9.27;;;;;;;5.14;76.91;101170.81;4404102;32;33368;-82
2021/11/11 03:05:30;;;;;;;14.20;8.93;;;;;;;5.05;76.97;101172.13;4395528;32;33942;-81
2021/11/11 03:07:58;;;;;;;15.75;9.80;;;;;;;4.71;78.16;101176.50;4420361;32;35430;-82
2021/11/11 03:10:26;;;;;;;;;;;;;;;4.88;77.62;101172.13;4412894;32;34592;-81
2021/11/11 03:12:56;;;;;;;12.82;8.52;;;;;;;4.96;77.29;101169.09;4408227;32;33088;-82
2021/11/11 03:15:29;;;;;;;15.45;9.32;;;;;;;4.63;78.29;101161.03;4408092;32;33369;-81
2021/11/11 03:17:57;;;;;;;22.13;10.68;;;;;;;4.61;78.70;101157.62;4407558;32;35476;-81
2021/11/11 03:20:26;;;;;;;13.32;7.47;;;;;;;4.68;78.47;101158.19;4407393;32;34989;-82
2021/11/11 03:22:55;;;;;;;13.70;9.05;;;;;;;4.53;79.31;101149.25;4407625;32;32347;-82
2021/11/11 03:25:25;;;;;;;19.20;10.70;;;;;;;4.70;78.59;101153.72;4408152;32;34824;-81
2021/11/11 03:27:55;;;;;;;12.00;9.07;;;;;;;4.83;78.35;101145.09;4421521;32;33710;-80
2021/11/11 03:30:24;;;;;;;11.77;10.50;;;;;;;4.99;77.20;101143.41;4395748;32;33709;-81
2021/11/11 03:32:53;;;;;;;13.40;9.65;;;;;;;4.83;78.08;101147.75;4407169;32;33685;-81
2021/11/11 03:35:22;;;;;;;13.43;9.32;;;;;;;4.80;78.15;101150.53;4395547;32;33871;-81
2021/11/11 03:37:52;;;;;;;14.35;9.55;;;;;;;5.14;77.04;101147.94;4390492;32;34820;-82
2021/11/11 03:40:29;;;;;;;11.75;8.98;;;;;;;5.29;76.10;101152.41;4412591;32;34427;-81
2021/11/11 03:42:59;;;;;;;13.27;9.63;;;;;;;5.21;75.90;101156.38;4408360;32;33376;-81
2021/11/11 03:45:28;;;;;;;14.90;10.77;;;;;;;5.20;76.30;101154.69;4395347;32;32735;-81
2021/11/11 03:47:57;;;;;;;17.23;10.85;;;;;;;5.34;75.57;101150.41;4407770;32;34645;-81
2021/11/11 03:50:25;;;;;;;17.35;10.20;;;;;;;5.43;74.69;101146.44;4395355;32;34305;-81
2021/11/11 03:52:55;;;;;;;11.98;8.70;;;;;;;5.38;75.22;101151.94;4407799;32;32550;-81
2021/11/11 03:55:25;;;;;;;11.68;9.60;;;;;;;5.41;75.03;101146.53;4395147;32;32248;-81
2021/11/11 03:57:55;;;;;;;18.20;11.18;;;;;;;5.43;75.01;101142.84;4407748;32;34802;-81
2021/11/11 04:00:25;;;;;;;16.58;9.68;;;;;;;5.20;75.45;101141.50;4421136;32;34309;-81
2021/11/11 04:02:53;;;;;;;9.55;8.60;;;;;;;5.28;75.30;101141.97;4407466;32;33071;-81
2021/11/11 04:05:21;;;;;;;;;;;;;;;5.24;75.57;101138.63;4407294;32;35086;-81
2021/11/11 04:07:49;;;;;;;19.20;10.82;;;;;;;5.37;74.87;101134.41;4408004;32;35375;-81
2021/11/11 04:10:17;;;;;;;;;;;;;;;5.25;75.32;101139.47;4394954;32;33637;-82
2021/11/11 04:12:59;;;;;;;14.23;8.85;;;;;;;5.32;75.27;101146.13;4420154;32;32918;-82
2021/11/11 04:15:28;;;;;;;15.82;8.95;;;;;;;5.34;75.52;101139.00;4402462;32;34416;-81
2021/11/11 04:17:56;;;;;;;12.52;10.18;;;;;;;5.36;75.19;101147.69;4407550;32;35554;-82
2021/11/11 04:20:24;;;;;;;19.15;11.38;;;;;;;5.59;74.21;101146.41;4421096;32;35287;-81
2021/11/11 04:22:54;;;;;;;14.87;8.18;;;;;;;5.56;73.90;101151.84;4420270;32;33321;-82
2021/11/11 04:25:32;;;;;;;18.50;10.57;;;;;;;5.39;74.77;101147.53;4406661;32;33136;-82
2021/11/11 04:28:07;;;;;;;11.75;8.85;;;;;;;5.35;74.56;101151.28;4408228;32;34482;-82
2021/11/11 04:30:35;;;;;;;13.82;7.75;;;;;;;5.25;75.34;101147.38;4393606;32;33169;-82
2021/11/11 04:33:04;;;;;;;14.43;10.40;;;;;;;5.23;75.43;101141.31;4404239;32;33297;-82
2021/11/11 04:35:33;;;;;;;16.37;12.25;;;;;;;4.97;76.62;101147.94;4406607;32;33083;-81
2021/11/11 04:43:24;;;;;;;13.10;10.43;;;;;;;5.44;74.86;101146.38;4407186;32;33329;-83
2021/11/11 04:46:10;;;;;;;10.70;9.45;;;;;;;5.42;74.75;101142.97;4419118;32;34380;-83
2021/11/11 04:51:54;;;;;;;15.25;10.43;;;;;;;5.43;74.25;101142.84;4348535;32;33825;-83
2021/11/11 05:02:56;;;;;;;16.05;8.70;;;;;;;5.38;74.26;101127.38;4358304;32;34783;-85
2021/11/11 05:05:24;;;;;;;14.90;8.63;;;;;;;5.06;75.10;101126.38;4347970;32;33048;-82
2021/11/11 05:07:54;;;;;;;12.90;8.27;;;;;;;5.20;74.96;101128.31;4359522;32;33857;-83
2021/11/11 05:10:22;;;;;;;14.43;9.30;;;;;;;5.08;75.33;101137.69;4347573;32;34397;-83
2021/11/11 05:12:50;;;;;;;21.95;9.38;;;;;;;5.05;75.62;101131.72;4347206;32;33270;-83
2021/11/11 05:15:18;;;;;;;11.73;9.07;;;;;;;5.23;74.98;101131.66;4359033;32;33958;-83
2021/11/11 05:17:47;;;;;;;12.80;10.15;;;;;;;5.43;74.18;101124.38;4347740;32;34829;-83
2021/11/11 05:20:17;;;;;;;12.55;8.38;;;;;;;5.53;73.40;101125.63;4359676;32;34563;-83
2021/11/11 05:22:45;;;;;;;16.33;10.48;;;;;;;5.39;73.60;101124.66;4347037;32;33970;-83
2021/11/11 05:25:14;;;;;;;12.07;7.80;;;;;;;5.15;74.63;101114.47;4347115;32;34045;-83
2021/11/11 05:27:44;;;;;;;13.02;9.30;;;;;;;4.84;75.55;101115.22;4397891;32;34530;-83
2021/11/11 05:30:14;;;;;;;15.35;9.85;;;;;;;5.04;75.03;101122.09;4408455;32;34636;-84
2021/11/11 05:32:42;;;;;;;12.20;9.40;;;;;;;5.19;74.45;101121.31;4408461;32;34406;-83
2021/11/11 05:35:12;;;;;;;23.55;10.07;;;;;;;5.07;74.33;101127.25;4408335;32;32994;-83
2021/11/11 05:37:41;;;;;;;12.98;8.60;;;;;;;4.90;75.00;101128.06;4422629;32;33982;-84
2021/11/11 05:40:11;;;;;;;11.55;9.85;;;;;;;4.86;75.44;101126.53;4407989;32;33144;-83
2021/11/11 05:42:39;;;;;;;15.40;10.13;;;;;;;4.95;75.16;101127.81;4408416;32;35231;-84
2021/11/11 05:45:08;;;;;;;16.45;9.80;;;;;;;5.08;74.50;101131.56;4407680;32;33506;-83
2021/11/11 05:47:36;;;;;;;9.88;8.73;;;;;;;4.89;75.19;101141.34;4408076;32;33378;-83
2021/11/11 05:50:05;;;;;;;20.95;8.75;;;;;;;4.82;75.44;101137.28;4419998;32;35785;-83
2021/11/11 05:52:34;;;;;;;14.02;9.60;;;;;;;4.89;75.03;101138.72;4395309;32;34630;-81
2021/11/11 05:55:03;;;;;;;15.05;10.35;;;;;;;4.64;75.87;101143.47;4407510;32;34278;-82
2021/11/11 05:57:31;;;;;;;14.40;9.63;;;;;;;5.07;74.21;101137.78;4408228;32;35151;-82
2021/11/11 05:59:59;;;;;;;;;;;;;;;5.07;74.32;101143.91;4400201;32;34016;-81
2021/11/11 06:02:26;;;;;;;18.42;8.52;;;;;;;4.84;74.79;101138.94;4421017;32;35354;-82
2021/11/11 06:04:55;;;;;;;10.32;8.50;;;;;;;5.25;73.41;101148.25;4394449;32;31695;-81
2021/11/11 06:07:23;;;;;;;;;;;;;;;5.22;73.34;101152.81;4402521;32;32326;-81
2021/11/11 06:09:50;;;;;;;11.65;9.05;;;;;;;5.19;73.38;101153.81;4407630;32;35458;-80
2021/11/11 06:12:20;;;;;;;12.37;9.43;;;;;;;5.15;73.41;101156.69;4420358;32;35181;-81
2021/11/11 06:14:47;;;;;;;11.02;8.95;;;;;;;5.23;73.07;101157.16;4397279;32;33584;-80
2021/11/11 06:17:15;;;;;;;10.52;8.20;;;;;;;5.11;73.39;101158.66;4407917;32;34303;-81
2021/11/11 06:19:45;;;;;;;12.85;8.95;;;;;;;5.18;73.37;101146.00;4395274;32;34766;-81
2021/11/11 06:22:13;;;;;;;13.07;9.68;;;;;;;5.12;73.49;101156.84;4407965;32;33622;-80
2021/11/11 06:24:42;;;;;;;15.43;9.98;;;;;;;5.16;73.57;101159.25;4420238;32;34183;-81
2021/11/11 06:27:11;;;;;;;13.50;8.70;;;;;;;5.14;73.69;101157.62;4420183;32;34432;-80
2021/11/11 06:29:38;;;;;;;14.57;10.23;;;;;;;5.20;73.43;101165.25;4395098;32;35039;-81
2021/11/11 06:32:07;;;;;;;15.38;9.10;;;;;;;5.40;72.84;101159.78;4421120;32;34095;-81
2021/11/11 06:34:55;;;;;;;15.95;8.73;;;;;;;5.36;72.90;101160.91;4408297;32;32736;-80
2021/11/11 06:37:23;;;;;;;13.98;10.18;;;;;;;5.18;73.72;101165.31;4408228;32;33832;-81
2021/11/11 06:39:50;;;;;;;14.82;8.35;;;;;;;5.14;73.78;101168.16;4407871;32;35024;-81
2021/11/11 06:42:18;;;;;;;15.88;9.63;;;;;;;5.41;72.91;101156.22;4413225;32;34870;-81
2021/11/11 06:44:47;;;;;;;15.00;9.35;;;;;;;5.47;72.83;101165.53;4406802;32;32816;-80
2021/11/11 06:47:15;;;;;;;13.02;10.15;;;;;;;5.39;73.32;101169.50;4406699;32;33559;-80
2021/11/11 06:49:43;;;;;;;6.95;5.82;;;;;;;5.49;72.68;101160.19;4408015;32;35001;-80
2021/11/11 06:52:10;;;;;;;14.25;8.45;;;;;;;5.75;71.77;101159.66;4407391;32;34943;-80
2021/11/11 06:54:41;;;;;;;14.23;9.07;;;;;;;5.74;72.05;101156.19;4402466;32;34140;-81
2021/11/11 06:57:13;;;;;;;10.98;9.90;;;;;;;5.72;72.19;101151.91;4412617;32;33816;-80
2021/11/11 06:59:42;;;;;;;13.50;8.07;;;;;;;5.79;72.18;101138.31;4423780;32;34208;-80
2021/11/11 07:02:09;;;;;;;7.90;6.90;;;;;;;5.65;72.59;101138.19;4398427;32;33624;-80
2021/11/11 07:04:37;;;;;;;10.18;8.85;;;;;;;5.83;72.02;101139.88;4398700;32;32903;-81
2021/11/11 07:07:05;;;;;;;11.27;7.10;;;;;;;6.03;71.15;101139.66;4411174;32;34281;-80
2021/11/11 07:09:33;;;;;;;12.07;7.12;;;;;;;6.03;70.98;101144.06;4411840;32;34411;-81
2021/11/11 07:12:01;;;;;;;9.90;6.87;;;;;;;6.01;70.96;101148.59;4398209;32;33966;-81
2021/11/11 07:14:29;;;;;;;10.07;6.15;;;;;;;6.31;70.39;101154.81;4398634;32;33099;-80
2021/11/11 07:16:56;;;;;;;11.55;7.55;;;;;;;5.96;71.04;101148.00;4412907;32;33121;-80
2021/11/11 07:19:24;;;;;;;12.77;7.10;;;;;;;6.16;70.81;101155.69;4424605;32;34972;-81
2021/11/11 07:21:52;;;;;;;13.52;6.55;;;;;;;6.26;69.80;101148.97;4399198;32;34444;-81
2021/11/11 07:24:19;;;;;;;5.80;4.78;;;;;;;6.04;70.35;101148.41;4410771;32;32958;-84
2021/11/11 07:26:47;;;;;;;22.08;9.07;;;;;;;6.17;70.18;101149.47;4411427;32;32177;-84
2021/11/11 07:29:14;;;;;;;7.05;5.62;;;;;;;6.26;69.47;101156.88;4386835;32;35890;-84
2021/11/11 07:31:44;;;;;;;8.55;7.57;;;;;;;6.04;70.48;101154.56;4398854;32;34573;-84
2021/11/11 07:34:12;;;;;;;9.35;6.90;;;;;;;6.38;69.89;101145.63;4411273;32;33868;-83
2021/11/11 07:36:39;;;;;;;9.43;7.18;;;;;;;6.63;68.57;101145.97;4400851;32;33821;-83
2021/11/11 07:39:07;;;;;;;13.43;7.37;;;;;;;6.68;68.92;101147.41;4424151;32;34545;-83
2021/11/11 07:41:36;;;;;;;8.00;6.50;;;;;;;7.02;67.53;101154.25;4411703;32;34749;-83
2021/11/11 07:44:05;;;;;;;10.68;8.43;;;;;;;6.84;68.56;101153.53;4385821;32;33656;-82
2021/11/11 07:46:34;;;;;;;7.43;6.70;;;;;;;6.76;68.29;101149.59;4411556;32;34642;-82
2021/11/11 07:49:02;;;;;;;8.35;7.10;;;;;;;6.88;67.59;101141.81;4399001;32;35984;-84
2021/11/11 07:51:29;;;;;;;14.90;8.40;;;;;;;6.78;68.90;101148.59;4396382;32;33615;-85
2021/11/11 07:53:58;;;;;;;8.32;6.60;;;;;;;7.13;67.12;101141.25;4398517;32;33088;-85
2021/11/11 07:56:29;;;;;;;16.15;7.28;;;;;;;6.85;67.69;101135.84;4398032;32;33466;-85
2021/11/11 07:58:57;;;;;;;10.93;7.03;;;;;;;6.88;67.98;101133.06;4398515;32;34916;-82
2021/11/11 08:01:24;;;;;;;8.95;5.78;;;;;;;6.78;68.13;101129.19;4385453;32;34219;-84
2021/11/11 08:03:53;;;;;;;8.43;6.25;;;;;;;6.82;67.81;101113.06;4397072;32;34567;-82
2021/11/11 08:06:20;;;;;;;10.77;7.95;;;;;;;6.80;67.61;101112.31;4397471;32;34795;-82
2021/11/11 08:08:52;;;;;;;15.27;8.60;;;;;;;6.81;67.45;101115.81;4398185;32;35573;-83
2021/11/11 08:11:25;;;;;;;12.50;7.03;;;;;;;6.64;67.98;101110.66;4398353;32;34988;-84
2021/11/11 08:13:53;;;;;;;22.08;7.47;;;;;;;6.65;67.96;101105.28;4397987;32;33217;-83
2021/11/11 08:16:21;;;;;;;7.68;6.90;;;;;;;7.08;66.88;101108.94;4398315;32;33596;-84
2021/11/11 08:18:49;;;;;;;13.43;6.68;;;;;;;7.02;66.95;101104.84;4410818;32;35412;-83
2021/11/11 08:21:16;;;;;;;8.10;6.53;;;;;;;7.13;66.10;101117.44;4410830;32;34534;-82
2021/11/11 08:23:44;;;;;;;7.22;6.45;;;;;;;6.99;66.02;101105.00;4398242;32;32615;-82
2021/11/11 08:26:12;;;;;;;7.80;6.22;;;;;;;7.19;65.78;101098.53;4397791;32;35272;-83
2021/11/11 08:28:39;;;;;;;11.05;8.73;;;;;;;7.30;65.88;101104.03;4394998;32;35103;-83
2021/11/11 08:31:07;;;;;;;13.45;5.50;;;;;;;7.47;65.50;101095.94;4397738;32;34374;-83
2021/11/11 08:33:35;;;;;;;;;;;;;;;7.55;64.31;101104.28;4398383;32;33634;-83
2021/11/11 08:36:04;;;;;;;8.32;5.37;;;;;;;7.49;64.27;101091.41;4423874;32;33748;-83
2021/11/11 08:38:32;;;;;;;5.15;4.68;;;;;;;7.41;63.69;101081.28;4400385;32;34808;-83
2021/11/11 08:41:00;;;;;;;4.65;4.12;;;;;;;7.45;64.03;101085.44;4387280;32;34008;-82
2021/11/11 08:43:28;;;;;;;4.78;4.25;;;;;;;7.62;63.35;101087.91;4399683;32;32636;-83
2021/11/11 08:45:56;;;;;;;;;;;;;;;7.46;63.70;101084.50;4412875;32;35201;-83
2021/11/11 08:48:24;;;;;;;5.40;4.12;;;;;;;7.79;62.95;101090.38;4400180;32;35365;-83
2021/11/11 08:50:54;;;;;;;5.32;4.12;;;;;;;7.92;62.69;101090.47;4412678;32;34972;-83
2021/11/11 08:53:22;;;;;;;10.45;5.57;;;;;;;8.24;61.71;101091.94;4413900;32;33373;-83
2021/11/11 08:55:49;;;;;;;;;;;;;;;8.18;61.00;101089.62;4413485;32;34192;-84
2021/11/11 08:58:17;;;;;;;8.00;3.55;;;;;;;8.38;60.96;101083.97;4426523;32;34754;-83
2021/11/11 09:00:49;;;;;;;7.93;4.55;;;;;;;8.25;60.48;101080.38;4412811;32;32788;-84
2021/11/11 09:03:18;;;;;;;7.07;5.65;;;;;;;8.20;60.79;101085.13;4400462;32;33512;-83
2021/11/11 09:05:47;;;;;;;5.97;5.45;;;;;;;7.90;62.02;101079.06;4401269;32;33798;-83
2021/11/11 09:08:15;;;;;;;5.45;4.68;;;;;;;8.36;60.95;101080.53;4426410;32;35087;-82
2021/11/11 09:10:44;;;;;;;5.43;4.93;;;;;;;8.45;60.39;101080.78;4412301;32;34499;-83
2021/11/11 09:13:27;;;;;;;8.52;4.97;;;;;;;8.61;60.08;101078.84;4401318;32;32729;-83
2021/11/11 09:15:56;;;;;;;5.47;3.80;;;;;;;8.73;59.42;101073.56;4398555;32;33439;-85
2021/11/11 09:18:23;;;;;;;8.48;4.45;;;;;;;9.02;59.31;101079.59;4412229;32;34529;-85
2021/11/11 09:21:04;;;;;;;4.00;3.65;;;;;;;9.28;58.77;101076.00;4408378;32;33345;-82
2021/11/11 09:23:39;;;;;;;4.43;3.58;;;;;;;9.62;57.40;101070.91;4398989;32;33940;-84
2021/11/11 09:27:02;;;;;;;4.00;3.17;;;;;;;9.34;56.91;101059.63;4351183;32;32306;-85
2021/11/11 09:30:55;;;;;;;4.40;3.62;;;;;;;8.92;58.54;101067.91;4276039;33;33964;-86
2021/11/11 09:33:56;;;;;;;5.93;5.35;;;;;;;8.78;59.91;101074.13;4307449;33;33147;-85
2021/11/11 09:36:56;;;;;;;6.70;4.65;;;;;;;9.24;57.95;101074.50;4290396;33;32513;-84
2021/11/11 09:39:24;;;;;;;5.85;4.12;;;;;;;9.46;57.35;101072.94;4294486;33;34640;-81
2021/11/11 09:41:56;;;;;;;4.80;4.40;;;;;;;9.23;57.34;101067.50;4306160;33;34568;-85
2021/11/11 09:44:25;;;;;;;5.37;3.72;;;;;;;9.08;58.16;101068.56;4305547;33;34836;-85
2021/11/11 09:46:54;;;;;;;8.32;5.80;;;;;;;9.18;58.27;101065.16;4306478;33;33736;-84
2021/11/11 09:49:23;;;;;;;8.07;5.45;;;;;;;9.35;57.49;101058.72;4306148;33;33372;-84
2021/11/11 09:51:51;;;;;;;6.00;5.03;;;;;;;9.54;57.41;101057.31;4305966;33;34659;-86
2021/11/11 09:59:43;;;;;;;5.72;5.22;;;;;;;9.49;58.10;101051.47;4311320;32;34295;-84
2021/11/11 10:02:11;;;;;;;8.82;4.97;;;;;;;9.60;56.98;101058.69;4365495;32;34420;-82
2021/11/11 10:04:39;;;;;;;6.05;4.43;;;;;;;9.52;57.98;101058.38;4378341;32;33876;-82
2021/11/11 10:07:08;;;;;;;5.00;4.53;;;;;;;9.77;57.09;101043.28;4399746;32;34334;-82
2021/11/11 10:09:40;;;;;;;;;;;;;;;10.21;56.62;101035.59;4412076;32;34619;-83
2021/11/11 10:12:17;;;;;;;7.60;5.95;;;;;;;10.30;55.79;101026.94;4412275;32;34764;-84
2021/11/11 10:14:47;;;;;;;5.20;4.72;;;;;;;10.29;56.14;101025.25;4411347;32;34210;-83
2021/11/11 10:17:17;;;;;;;4.95;4.53;;;;;;;10.37;56.06;101025.53;4399862;32;32810;-84
2021/11/11 10:19:48;;;;;;;7.47;4.72;;;;;;;10.41;55.53;101020.84;4412163;32;33555;-84
2021/11/11 10:22:22;;;;;;;4.12;3.87;;;;;;;10.49;55.69;101013.16;4413212;32;34479;-87
2021/11/11 10:24:52;;;;;;;6.82;4.55;;;;;;;10.37;54.86;101012.25;4398740;32;32781;-86
2021/11/11 10:30:04;;;;;;;4.68;4.03;;;;;;;10.68;54.88;101000.16;4396753;32;34078;-88
2021/11/11 10:32:54;;;;;;;7.22;4.82;;;;;;;11.47;52.22;101004.56;4399451;32;35368;-86
2021/11/11 10:35:27;;;;;;;6.80;4.40;;;;;;;11.04;52.81;100997.38;4424034;32;34235;-91
2021/11/11 10:38:19;;;;;;;4.12;3.78;;;;;;;11.27;52.52;100995.44;4411855;32;33253;-86
2021/11/11 10:40:52;;;;;;;2.92;2.70;;;;;;;11.44;52.20;100986.97;4412358;32;32974;-85
2021/11/11 10:43:26;;;;;;;3.67;3.47;;;;;;;11.14;52.46;100998.34;4412953;32;35533;-84
2021/11/11 10:45:55;;;;;;;3.60;3.28;;;;;;;11.42;51.22;100991.59;4410697;32;32888;-87
2021/11/11 10:48:25;;;;;;;7.25;4.57;;;;;;;11.38;51.43;100982.16;4398181;32;33109;-85
2021/11/11 10:50:57;;;;;;;4.72;3.70;;;;;;;10.98;52.83;100982.72;4398579;32;33933;-90
2021/11/11 10:53:36;;;;;;;6.55;4.55;;;;;;;11.16;52.05;100981.28;4398394;32;34940;-84
2021/11/11 10:56:06;;;;;;;4.15;3.85;;;;;;;10.98;52.91;100974.72;4398751;32;35008;-88
2021/11/11 10:58:38;;;;;;;4.37;3.65;;;;;;;11.00;53.29;100982.56;4410730;32;31768;-88
2021/11/11 11:01:09;;;;;;;3.37;3.17;;;;;;;11.23;52.58;100973.66;4412102;32;34169;-85
2021/11/11 11:03:39;;;;;;;4.03;3.70;;;;;;;11.05;52.57;100975.09;4412532;32;35729;-88
2021/11/11 11:06:21;;;;;;;6.93;5.28;;;;;;;11.23;52.99;100979.00;4394814;32;34604;-87
2021/11/11 11:08:58;;;;;;;9.65;5.00;;;;;;;11.35;51.70;100977.03;4394307;32;32760;-81
2021/11/11 11:11:35;;;;;;;4.95;3.53;;;;;;;11.62;51.08;100971.41;4411046;32;34333;-84
2021/11/11 11:14:28;;;;;;;3.37;3.17;;;;;;;11.41;51.66;100968.59;4397007;32;35295;-82
2021/11/11 11:17:06;;;;;;;4.28;3.97;;;;;;;11.34;52.05;100964.69;4394264;32;33779;-83
2021/11/11 11:19:34;;;;;;;2.75;2.65;;;;;;;11.51;51.69;100952.69;4410567;32;33798;-81
2021/11/11 11:22:02;;;;;;;4.53;4.18;;;;;;;11.17;51.83;100958.16;4403046;32;34324;-84
2021/11/11 11:24:31;;;;;;;;;;;;;;;11.17;51.91;100948.34;4398469;32;34615;-82
2021/11/11 11:27:04;;;;;;;4.47;4.18;;;;;;;10.85;53.40;100962.47;4422629;32;35647;-82
2021/11/11 11:29:44;;;;;;;3.22;2.92;;;;;;;10.92;52.80;100943.22;4399661;32;33087;-83
2021/11/11 11:32:23;;;;;;;5.90;4.18;;;;;;;11.27;53.42;100943.13;4406547;32;34422;-83
2021/11/11 11:34:54;;;;;;;3.87;3.62;;;;;;;11.36;51.95;100941.44;4386381;32;35217;-83
2021/11/11 11:37:25;;;;;;;7.95;4.18;;;;;;;11.13;52.58;100928.25;4411066;32;32387;-83
2021/11/11 11:40:00;;;;;;;10.75;3.67;;;;;;;11.26;52.31;100926.31;4413547;32;33084;-83
2021/11/11 11:42:33;;;;;;;5.20;3.60;;;;;;;11.44;52.13;100931.03;4398476;32;32226;-83
2021/11/11 11:45:06;;;;;;;4.35;3.55;;;;;;;11.82;52.01;100920.81;4398006;32;34919;-83
2021/11/11 11:47:43;;;;;;;4.30;3.97;;;;;;;12.17;50.79;100921.44;4399282;32;33810;-84
2021/11/11 11:50:14;;;;;;;5.20;4.70;;;;;;;11.98;50.14;100913.25;4399260;32;33827;-84
2021/11/11 11:52:46;;;;;;;3.72;3.45;;;;;;;11.99;50.21;100909.62;4412872;32;33507;-83
2021/11/11 11:58:10;;;;;;;8.07;4.18;;;;;;;11.91;50.74;100897.91;4388542;32;36013;-85
2021/11/11 12:08:32;;;;;;;3.47;3.22;;;;;;;12.48;49.51;100882.38;4398286;32;34705;-84
2021/11/11 12:11:26;;;;;;;5.32;4.07;;;;;;;12.46;48.75;100879.81;4398833;32;33076;-83
2021/11/11 12:39:33;;;;;;;5.43;5.03;;;;;;;12.95;47.14;100837.25;4402893;32;34984;-84
2021/11/11 12:42:05;;;;;;;6.15;4.97;;;;;;;13.01;46.50;100838.53;4424713;32;34285;-84
2021/11/11 12:44:32;;;;;;;5.80;5.25;;;;;;;12.82;47.04;100833.09;4399514;32;32291;-85
2021/11/11 12:47:01;;;;;;;5.25;4.80;;;;;;;12.93;47.00;100825.84;4399054;32;33656;-84